sensor_id;sensor_type;location;lat;lon;timestamp;P1;durP1;ratioP1;P2;durP2;ratioP2
62929;SDS011;49036;42.782;23.108;2023-01-09T00:00:48;45.40;;;20.48;;
62929;SDS011;49036;42.782;23.108;2023-01-09T00:03:15;46.33;;;23.90;;
62929;SDS011;49036;42.782;23.108;2023-01-09T00:05:40;46.75;;;22.45;;
62929;SDS011;49036;42.782;23.108;2023-01-09T00:08:06;40.08;;;21.48;;
62929;SDS011;49036;42.782;23.108;2023-01-09T00:10:32;44.20;;;20.67;;
62929;SDS011;49036;42.782;23.108;2023-01-09T00:12:57;49.72;;;22.27;;
62929;SDS011;49036;42.782;23.108;2023-01-09T00:15:23;44.25;;;18.73;;
62929;SDS011;49036;42.782;23.108;2023-01-09T00:17:48;46.28;;;21.17;;
62929;SDS011;49036;42.782;23.108;2023-01-09T00:20:14;58.70;;;21.85;;
62929;SDS011;49036;42.782;23.108;2023-01-09T00:22:40;41.92;;;21.00;;
62929;SDS011;49036;42.782;23.108;2023-01-09T00:25:05;47.08;;;20.60;;
62929;SDS011;49036;42.782;23.108;2023-01-09T00:27:32;51.72;;;22.35;;
62929;SDS011;49036;42.782;23.108;2023-01-09T00:29:58;53.33;;;23.67;;
62929;SDS011;49036;42.782;23.108;2023-01-09T00:32:24;49.90;;;20.85;;
62929;SDS011;49036;42.782;23.108;2023-01-09T00:34:50;48.33;;;22.77;;
62929;SDS011;49036;42.782;23.108;2023-01-09T00:37:15;48.42;;;20.95;;
62929;SDS011;49036;42.782;23.108;2023-01-09T00:39:41;48.47;;;21.30;;
62929;SDS011;49036;42.782;23.108;2023-01-09T00:42:09;49.72;;;21.13;;
62929;SDS011;49036;42.782;23.108;2023-01-09T00:44:40;49.40;;;21.30;;
62929;SDS011;49036;42.782;23.108;2023-01-09T00:47:20;53.83;;;20.70;;
62929;SDS011;49036;42.782;23.108;2023-01-09T00:49:49;41.47;;;19.30;;
62929;SDS011;49036;42.782;23.108;2023-01-09T00:52:16;45.40;;;20.38;;
62929;SDS011;49036;42.782;23.108;2023-01-09T00:54:42;46.00;;;21.50;;
62929;SDS011;49036;42.782;23.108;2023-01-09T00:57:09;53.92;;;25.65;;
62929;SDS011;49036;42.782;23.108;2023-01-09T00:59:37;53.33;;;24.17;;
62929;SDS011;49036;42.782;23.108;2023-01-09T01:02:03;46.38;;;21.88;;
62929;SDS011;49036;42.782;23.108;2023-01-09T01:04:29;60.67;;;24.23;;
62929;SDS011;49036;42.782;23.108;2023-01-09T01:07:13;49.08;;;22.63;;
62929;SDS011;49036;42.782;23.108;2023-01-09T01:09:57;62.55;;;26.50;;
62929;SDS011;49036;42.782;23.108;2023-01-09T01:12:22;58.47;;;25.33;;
62929;SDS011;49036;42.782;23.108;2023-01-09T01:14:48;65.78;;;29.08;;
62929;SDS011;49036;42.782;23.108;2023-01-09T01:17:13;53.53;;;26.38;;
62929;SDS011;49036;42.782;23.108;2023-01-09T01:19:38;48.20;;;22.88;;
62929;SDS011;49036;42.782;23.108;2023-01-09T01:22:04;56.03;;;22.88;;
62929;SDS011;49036;42.782;23.108;2023-01-09T01:24:30;44.28;;;20.25;;
62929;SDS011;49036;42.782;23.108;2023-01-09T01:26:55;48.58;;;20.65;;
62929;SDS011;49036;42.782;23.108;2023-01-09T01:29:21;56.95;;;23.90;;
62929;SDS011;49036;42.782;23.108;2023-01-09T01:31:46;45.63;;;19.27;;
62929;SDS011;49036;42.782;23.108;2023-01-09T01:34:12;53.67;;;21.75;;
62929;SDS011;49036;42.782;23.108;2023-01-09T01:36:37;47.58;;;21.65;;
62929;SDS011;49036;42.782;23.108;2023-01-09T01:39:03;46.63;;;20.77;;
62929;SDS011;49036;42.782;23.108;2023-01-09T01:41:28;45.67;;;19.95;;
62929;SDS011;49036;42.782;23.108;2023-01-09T01:44:00;45.78;;;19.45;;
62929;SDS011;49036;42.782;23.108;2023-01-09T01:46:28;43.80;;;19.85;;
62929;SDS011;49036;42.782;23.108;2023-01-09T01:48:59;45.60;;;21.05;;
62929;SDS011;49036;42.782;23.108;2023-01-09T01:51:30;62.00;;;22.42;;
62929;SDS011;49036;42.782;23.108;2023-01-09T01:53:59;42.83;;;19.75;;
62929;SDS011;49036;42.782;23.108;2023-01-09T01:56:38;96.93;;;39.28;;
62929;SDS011;49036;42.782;23.108;2023-01-09T01:59:22;72.70;;;30.65;;
62929;SDS011;49036;42.782;23.108;2023-01-09T02:01:52;55.58;;;23.55;;
62929;SDS011;49036;42.782;23.108;2023-01-09T02:04:22;49.17;;;21.92;;
62929;SDS011;49036;42.782;23.108;2023-01-09T02:06:48;56.65;;;23.10;;
62929;SDS011;49036;42.782;23.108;2023-01-09T02:09:17;44.63;;;22.48;;
62929;SDS011;49036;42.782;23.108;2023-01-09T02:11:47;58.58;;;22.95;;
62929;SDS011;49036;42.782;23.108;2023-01-09T02:14:16;56.15;;;23.80;;
62929;SDS011;49036;42.782;23.108;2023-01-09T02:16:46;52.55;;;20.67;;
62929;SDS011;49036;42.782;23.108;2023-01-09T02:22:32;52.83;;;23.42;;
62929;SDS011;49036;42.782;23.108;2023-01-09T02:39:36;45.55;;;21.83;;
62929;SDS011;49036;42.782;23.108;2023-01-09T02:44:29;56.13;;;23.77;;
62929;SDS011;49036;42.782;23.108;2023-01-09T02:47:41;53.08;;;22.55;;
62929;SDS011;49036;42.782;23.108;2023-01-09T02:49:50;46.92;;;19.75;;
62929;SDS011;49036;42.782;23.108;2023-01-09T02:55:11;49.42;;;24.02;;
62929;SDS011;49036;42.782;23.108;2023-01-09T02:57:46;56.00;;;23.10;;
62929;SDS011;49036;42.782;23.108;2023-01-09T03:08:07;57.88;;;23.75;;
62929;SDS011;49036;42.782;23.108;2023-01-09T03:10:39;52.50;;;22.23;;
62929;SDS011;49036;42.782;23.108;2023-01-09T03:13:09;55.95;;;24.80;;
62929;SDS011;49036;42.782;23.108;2023-01-09T03:15:38;69.18;;;27.48;;
62929;SDS011;49036;42.782;23.108;2023-01-09T03:18:07;65.45;;;28.80;;
62929;SDS011;49036;42.782;23.108;2023-01-09T03:20:34;63.35;;;26.40;;
62929;SDS011;49036;42.782;23.108;2023-01-09T03:23:03;59.17;;;25.35;;
62929;SDS011;49036;42.782;23.108;2023-01-09T03:25:30;57.03;;;24.75;;
62929;SDS011;49036;42.782;23.108;2023-01-09T03:27:59;56.70;;;27.35;;
62929;SDS011;49036;42.782;23.108;2023-01-09T03:30:27;54.38;;;25.40;;
62929;SDS011;49036;42.782;23.108;2023-01-09T03:32:53;62.60;;;28.42;;
62929;SDS011;49036;42.782;23.108;2023-01-09T03:35:19;67.00;;;30.48;;
62929;SDS011;49036;42.782;23.108;2023-01-09T03:37:45;54.25;;;25.88;;
62929;SDS011;49036;42.782;23.108;2023-01-09T03:40:10;65.13;;;28.13;;
62929;SDS011;49036;42.782;23.108;2023-01-09T03:42:36;57.75;;;27.50;;
62929;SDS011;49036;42.782;23.108;2023-01-09T03:45:02;53.97;;;23.50;;
62929;SDS011;49036;42.782;23.108;2023-01-09T03:47:28;65.78;;;29.13;;
62929;SDS011;49036;42.782;23.108;2023-01-09T03:49:53;72.35;;;28.10;;
62929;SDS011;49036;42.782;23.108;2023-01-09T03:52:19;63.33;;;27.15;;
62929;SDS011;49036;42.782;23.108;2023-01-09T03:54:44;64.20;;;27.60;;
62929;SDS011;49036;42.782;23.108;2023-01-09T03:57:10;68.72;;;26.40;;
62929;SDS011;49036;42.782;23.108;2023-01-09T03:59:35;56.25;;;25.17;;
62929;SDS011;49036;42.782;23.108;2023-01-09T04:02:01;76.03;;;30.02;;
62929;SDS011;49036;42.782;23.108;2023-01-09T04:04:26;68.47;;;28.45;;
62929;SDS011;49036;42.782;23.108;2023-01-09T04:06:52;63.58;;;27.30;;
62929;SDS011;49036;42.782;23.108;2023-01-09T04:09:17;51.83;;;25.55;;
62929;SDS011;49036;42.782;23.108;2023-01-09T04:11:43;52.38;;;26.38;;
62929;SDS011;49036;42.782;23.108;2023-01-09T04:14:08;56.47;;;22.85;;
62929;SDS011;49036;42.782;23.108;2023-01-09T04:16:34;42.97;;;22.45;;
62929;SDS011;49036;42.782;23.108;2023-01-09T04:18:59;49.50;;;24.10;;
62929;SDS011;49036;42.782;23.108;2023-01-09T04:21:25;50.25;;;21.58;;
62929;SDS011;49036;42.782;23.108;2023-01-09T04:23:50;47.25;;;20.88;;
62929;SDS011;49036;42.782;23.108;2023-01-09T04:26:15;46.92;;;19.48;;
62929;SDS011;49036;42.782;23.108;2023-01-09T04:28:41;56.70;;;24.73;;
62929;SDS011;49036;42.782;23.108;2023-01-09T04:31:06;57.97;;;24.63;;
62929;SDS011;49036;42.782;23.108;2023-01-09T04:33:32;50.83;;;21.33;;
62929;SDS011;49036;42.782;23.108;2023-01-09T04:35:58;47.03;;;20.38;;
62929;SDS011;49036;42.782;23.108;2023-01-09T04:38:24;48.45;;;22.80;;
62929;SDS011;49036;42.782;23.108;2023-01-09T04:40:51;41.45;;;19.38;;
62929;SDS011;49036;42.782;23.108;2023-01-09T04:43:16;82.95;;;30.67;;
62929;SDS011;49036;42.782;23.108;2023-01-09T04:45:42;48.65;;;23.00;;
62929;SDS011;49036;42.782;23.108;2023-01-09T04:48:07;49.83;;;22.42;;
62929;SDS011;49036;42.782;23.108;2023-01-09T04:50:33;58.15;;;24.45;;
62929;SDS011;49036;42.782;23.108;2023-01-09T04:52:58;56.08;;;23.80;;
62929;SDS011;49036;42.782;23.108;2023-01-09T04:55:24;54.13;;;23.00;;
62929;SDS011;49036;42.782;23.108;2023-01-09T04:57:49;58.00;;;22.35;;
62929;SDS011;49036;42.782;23.108;2023-01-09T05:00:15;51.33;;;22.52;;
62929;SDS011;49036;42.782;23.108;2023-01-09T05:02:40;54.58;;;23.33;;
62929;SDS011;49036;42.782;23.108;2023-01-09T05:05:06;57.65;;;27.02;;
62929;SDS011;49036;42.782;23.108;2023-01-09T05:07:33;54.33;;;23.25;;
62929;SDS011;49036;42.782;23.108;2023-01-09T05:09:59;41.60;;;20.42;;
62929;SDS011;49036;42.782;23.108;2023-01-09T05:12:25;46.83;;;20.42;;
62929;SDS011;49036;42.782;23.108;2023-01-09T05:14:51;42.97;;;20.70;;
62929;SDS011;49036;42.782;23.108;2023-01-09T05:17:16;39.75;;;18.83;;
62929;SDS011;49036;42.782;23.108;2023-01-09T05:19:42;52.15;;;23.70;;
62929;SDS011;49036;42.782;23.108;2023-01-09T05:22:10;46.75;;;21.08;;
62929;SDS011;49036;42.782;23.108;2023-01-09T05:24:38;46.85;;;21.23;;
62929;SDS011;49036;42.782;23.108;2023-01-09T05:27:03;40.70;;;19.85;;
62929;SDS011;49036;42.782;23.108;2023-01-09T05:29:29;47.92;;;19.25;;
62929;SDS011;49036;42.782;23.108;2023-01-09T05:31:55;46.78;;;20.23;;
62929;SDS011;49036;42.782;23.108;2023-01-09T05:34:20;50.67;;;22.38;;
62929;SDS011;49036;42.782;23.108;2023-01-09T05:36:46;54.10;;;23.63;;
62929;SDS011;49036;42.782;23.108;2023-01-09T05:39:11;56.15;;;26.02;;
62929;SDS011;49036;42.782;23.108;2023-01-09T05:41:37;51.78;;;25.77;;
62929;SDS011;49036;42.782;23.108;2023-01-09T05:44:02;47.25;;;21.55;;
62929;SDS011;49036;42.782;23.108;2023-01-09T05:46:29;50.63;;;23.83;;
62929;SDS011;49036;42.782;23.108;2023-01-09T05:48:55;52.13;;;22.60;;
62929;SDS011;49036;42.782;23.108;2023-01-09T05:51:20;53.05;;;24.88;;
62929;SDS011;49036;42.782;23.108;2023-01-09T05:53:46;48.35;;;23.70;;
62929;SDS011;49036;42.782;23.108;2023-01-09T05:56:12;53.67;;;27.92;;
62929;SDS011;49036;42.782;23.108;2023-01-09T05:58:37;58.20;;;29.13;;
62929;SDS011;49036;42.782;23.108;2023-01-09T06:01:03;61.42;;;28.10;;
62929;SDS011;49036;42.782;23.108;2023-01-09T06:03:28;63.95;;;30.38;;
62929;SDS011;49036;42.782;23.108;2023-01-09T06:05:54;65.05;;;32.13;;
62929;SDS011;49036;42.782;23.108;2023-01-09T06:08:20;76.15;;;34.25;;
62929;SDS011;49036;42.782;23.108;2023-01-09T06:10:45;74.20;;;33.42;;
62929;SDS011;49036;42.782;23.108;2023-01-09T06:13:11;78.88;;;37.83;;
62929;SDS011;49036;42.782;23.108;2023-01-09T06:15:37;61.75;;;29.55;;
62929;SDS011;49036;42.782;23.108;2023-01-09T06:18:02;56.75;;;27.88;;
62929;SDS011;49036;42.782;23.108;2023-01-09T06:20:29;80.45;;;36.00;;
62929;SDS011;49036;42.782;23.108;2023-01-09T06:22:55;88.18;;;40.10;;
62929;SDS011;49036;42.782;23.108;2023-01-09T06:25:20;84.20;;;38.50;;
62929;SDS011;49036;42.782;23.108;2023-01-09T06:27:46;73.00;;;34.53;;
62929;SDS011;49036;42.782;23.108;2023-01-09T06:30:13;71.97;;;33.22;;
62929;SDS011;49036;42.782;23.108;2023-01-09T06:32:38;63.30;;;29.08;;
62929;SDS011;49036;42.782;23.108;2023-01-09T06:35:04;77.93;;;32.22;;
62929;SDS011;49036;42.782;23.108;2023-01-09T06:37:30;61.92;;;29.50;;
62929;SDS011;49036;42.782;23.108;2023-01-09T06:39:55;81.05;;;34.65;;
62929;SDS011;49036;42.782;23.108;2023-01-09T06:42:21;76.95;;;34.42;;
62929;SDS011;49036;42.782;23.108;2023-01-09T06:44:46;73.68;;;38.08;;
62929;SDS011;49036;42.782;23.108;2023-01-09T06:47:12;67.60;;;32.22;;
62929;SDS011;49036;42.782;23.108;2023-01-09T06:49:37;68.68;;;30.85;;
62929;SDS011;49036;42.782;23.108;2023-01-09T06:52:03;53.47;;;29.13;;
62929;SDS011;49036;42.782;23.108;2023-01-09T06:54:31;56.92;;;29.20;;
62929;SDS011;49036;42.782;23.108;2023-01-09T06:56:57;53.85;;;25.70;;
62929;SDS011;49036;42.782;23.108;2023-01-09T06:59:23;54.13;;;28.90;;
62929;SDS011;49036;42.782;23.108;2023-01-09T07:01:48;51.90;;;23.25;;
62929;SDS011;49036;42.782;23.108;2023-01-09T07:04:14;50.90;;;25.67;;
62929;SDS011;49036;42.782;23.108;2023-01-09T07:06:41;52.20;;;25.23;;
62929;SDS011;49036;42.782;23.108;2023-01-09T07:09:06;61.28;;;30.55;;
62929;SDS011;49036;42.782;23.108;2023-01-09T07:11:32;54.42;;;25.35;;
62929;SDS011;49036;42.782;23.108;2023-01-09T07:13:58;55.67;;;24.40;;
62929;SDS011;49036;42.782;23.108;2023-01-09T07:16:23;45.47;;;22.67;;
62929;SDS011;49036;42.782;23.108;2023-01-09T07:18:49;43.53;;;23.40;;
62929;SDS011;49036;42.782;23.108;2023-01-09T07:21:14;47.38;;;21.55;;
62929;SDS011;49036;42.782;23.108;2023-01-09T07:23:40;42.13;;;20.15;;
62929;SDS011;49036;42.782;23.108;2023-01-09T07:26:05;42.15;;;20.15;;
62929;SDS011;49036;42.782;23.108;2023-01-09T07:28:30;48.80;;;23.45;;
62929;SDS011;49036;42.782;23.108;2023-01-09T07:30:57;43.58;;;21.77;;
62929;SDS011;49036;42.782;23.108;2023-01-09T07:33:26;41.30;;;19.35;;
62929;SDS011;49036;42.782;23.108;2023-01-09T07:35:52;45.35;;;21.40;;
62929;SDS011;49036;42.782;23.108;2023-01-09T07:38:17;45.30;;;20.45;;
62929;SDS011;49036;42.782;23.108;2023-01-09T07:40:43;39.17;;;18.30;;
62929;SDS011;49036;42.782;23.108;2023-01-09T07:43:08;39.80;;;18.05;;
62929;SDS011;49036;42.782;23.108;2023-01-09T07:45:33;41.75;;;18.45;;
62929;SDS011;49036;42.782;23.108;2023-01-09T07:47:59;45.13;;;21.08;;
62929;SDS011;49036;42.782;23.108;2023-01-09T07:50:24;39.95;;;20.05;;
62929;SDS011;49036;42.782;23.108;2023-01-09T07:52:50;46.42;;;20.23;;
62929;SDS011;49036;42.782;23.108;2023-01-09T07:55:15;44.88;;;20.50;;
62929;SDS011;49036;42.782;23.108;2023-01-09T07:57:41;44.15;;;20.20;;
62929;SDS011;49036;42.782;23.108;2023-01-09T08:00:06;46.03;;;22.88;;
62929;SDS011;49036;42.782;23.108;2023-01-09T08:02:35;39.75;;;21.95;;
62929;SDS011;49036;42.782;23.108;2023-01-09T08:05:01;47.38;;;23.90;;
62929;SDS011;49036;42.782;23.108;2023-01-09T08:07:26;49.67;;;25.70;;
62929;SDS011;49036;42.782;23.108;2023-01-09T08:09:52;53.22;;;25.50;;
62929;SDS011;49036;42.782;23.108;2023-01-09T08:12:17;57.28;;;27.67;;
62929;SDS011;49036;42.782;23.108;2023-01-09T08:14:43;52.28;;;25.33;;
62929;SDS011;49036;42.782;23.108;2023-01-09T08:17:08;55.85;;;25.45;;
62929;SDS011;49036;42.782;23.108;2023-01-09T08:19:35;54.10;;;28.25;;
62929;SDS011;49036;42.782;23.108;2023-01-09T08:22:01;55.63;;;25.67;;
62929;SDS011;49036;42.782;23.108;2023-01-09T08:24:27;53.38;;;24.17;;
62929;SDS011;49036;42.782;23.108;2023-01-09T08:26:54;52.92;;;23.50;;
62929;SDS011;49036;42.782;23.108;2023-01-09T08:29:19;52.20;;;28.45;;
62929;SDS011;49036;42.782;23.108;2023-01-09T08:31:45;47.47;;;22.08;;
62929;SDS011;49036;42.782;23.108;2023-01-09T08:34:10;40.53;;;21.50;;
62929;SDS011;49036;42.782;23.108;2023-01-09T08:36:36;39.67;;;18.90;;
62929;SDS011;49036;42.782;23.108;2023-01-09T08:39:01;36.58;;;16.63;;
62929;SDS011;49036;42.782;23.108;2023-01-09T08:41:27;37.30;;;18.60;;
62929;SDS011;49036;42.782;23.108;2023-01-09T08:44:11;37.03;;;19.70;;
62929;SDS011;49036;42.782;23.108;2023-01-09T08:46:55;32.63;;;17.25;;
62929;SDS011;49036;42.782;23.108;2023-01-09T08:49:30;38.20;;;18.80;;
62929;SDS011;49036;42.782;23.108;2023-01-09T08:51:56;39.25;;;20.02;;
62929;SDS011;49036;42.782;23.108;2023-01-09T08:54:21;42.42;;;19.30;;
62929;SDS011;49036;42.782;23.108;2023-01-09T08:56:47;46.28;;;20.20;;
62929;SDS011;49036;42.782;23.108;2023-01-09T08:59:12;39.95;;;17.67;;
62929;SDS011;49036;42.782;23.108;2023-01-09T09:01:39;43.83;;;23.65;;
62929;SDS011;49036;42.782;23.108;2023-01-09T09:04:04;44.78;;;20.90;;
62929;SDS011;49036;42.782;23.108;2023-01-09T09:06:31;39.72;;;20.60;;
62929;SDS011;49036;42.782;23.108;2023-01-09T09:08:57;58.88;;;24.70;;
62929;SDS011;49036;42.782;23.108;2023-01-09T09:11:27;48.03;;;22.85;;
62929;SDS011;49036;42.782;23.108;2023-01-09T09:13:56;49.65;;;21.92;;
62929;SDS011;49036;42.782;23.108;2023-01-09T09:16:25;49.30;;;20.25;;
62929;SDS011;49036;42.782;23.108;2023-01-09T09:18:51;35.15;;;19.05;;
62929;SDS011;49036;42.782;23.108;2023-01-09T09:23:44;34.67;;;17.85;;
62929;SDS011;49036;42.782;23.108;2023-01-09T09:26:09;41.53;;;20.33;;
62929;SDS011;49036;42.782;23.108;2023-01-09T09:28:35;45.38;;;20.00;;
62929;SDS011;49036;42.782;23.108;2023-01-09T09:31:03;41.25;;;19.75;;
62929;SDS011;49036;42.782;23.108;2023-01-09T09:33:29;39.33;;;18.13;;
62929;SDS011;49036;42.782;23.108;2023-01-09T09:35:57;43.05;;;22.08;;
62929;SDS011;49036;42.782;23.108;2023-01-09T09:38:22;42.90;;;21.05;;
62929;SDS011;49036;42.782;23.108;2023-01-09T09:46:42;41.78;;;18.88;;
62929;SDS011;49036;42.782;23.108;2023-01-09T09:49:15;36.10;;;18.17;;
62929;SDS011;49036;42.782;23.108;2023-01-09T09:51:55;38.88;;;16.55;;
62929;SDS011;49036;42.782;23.108;2023-01-09T09:54:30;44.42;;;21.05;;
62929;SDS011;49036;42.782;23.108;2023-01-09T09:56:58;45.38;;;22.45;;
62929;SDS011;49036;42.782;23.108;2023-01-09T09:59:30;40.92;;;19.58;;
62929;SDS011;49036;42.782;23.108;2023-01-09T10:04:33;42.13;;;18.55;;
62929;SDS011;49036;42.782;23.108;2023-01-09T10:07:12;42.80;;;18.92;;
62929;SDS011;49036;42.782;23.108;2023-01-09T10:09:51;38.35;;;17.17;;
62929;SDS011;49036;42.782;23.108;2023-01-09T10:12:32;35.70;;;17.60;;
62929;SDS011;49036;42.782;23.108;2023-01-09T10:15:13;44.42;;;20.05;;
62929;SDS011;49036;42.782;23.108;2023-01-09T10:17:54;29.48;;;15.48;;
62929;SDS011;49036;42.782;23.108;2023-01-09T10:20:47;41.83;;;18.27;;
62929;SDS011;49036;42.782;23.108;2023-01-09T10:26:20;36.15;;;17.30;;
62929;SDS011;49036;42.782;23.108;2023-01-09T10:29:07;36.75;;;18.73;;
62929;SDS011;49036;42.782;23.108;2023-01-09T10:34:32;35.70;;;17.45;;
62929;SDS011;49036;42.782;23.108;2023-01-09T10:37:14;39.95;;;18.73;;
62929;SDS011;49036;42.782;23.108;2023-01-09T10:39:46;35.28;;;18.73;;
62929;SDS011;49036;42.782;23.108;2023-01-09T10:42:39;38.08;;;18.63;;
62929;SDS011;49036;42.782;23.108;2023-01-09T10:47:48;42.67;;;18.45;;
62929;SDS011;49036;42.782;23.108;2023-01-09T10:52:44;36.58;;;19.30;;
62929;SDS011;49036;42.782;23.108;2023-01-09T10:57:52;38.58;;;17.48;;
62929;SDS011;49036;42.782;23.108;2023-01-09T11:00:23;39.75;;;17.92;;
62929;SDS011;49036;42.782;23.108;2023-01-09T11:02:50;48.90;;;22.02;;
62929;SDS011;49036;42.782;23.108;2023-01-09T11:05:18;42.30;;;17.95;;
62929;SDS011;49036;42.782;23.108;2023-01-09T11:07:47;38.13;;;17.88;;
62929;SDS011;49036;42.782;23.108;2023-01-09T11:10:17;38.70;;;20.55;;
62929;SDS011;49036;42.782;23.108;2023-01-09T11:12:43;40.03;;;19.45;;
62929;SDS011;49036;42.782;23.108;2023-01-09T11:17:40;48.75;;;19.80;;
62929;SDS011;49036;42.782;23.108;2023-01-09T11:22:52;43.40;;;19.48;;
62929;SDS011;49036;42.782;23.108;2023-01-09T11:25:23;39.95;;;20.10;;
62929;SDS011;49036;42.782;23.108;2023-01-09T11:30:30;35.85;;;17.02;;
62929;SDS011;49036;42.782;23.108;2023-01-09T11:33:01;36.67;;;17.50;;
62929;SDS011;49036;42.782;23.108;2023-01-09T11:36:03;34.50;;;16.83;;
62929;SDS011;49036;42.782;23.108;2023-01-09T11:38:30;39.53;;;17.13;;
62929;SDS011;49036;42.782;23.108;2023-01-09T11:41:12;32.78;;;16.95;;
62929;SDS011;49036;42.782;23.108;2023-01-09T11:43:42;26.27;;;14.48;;
62929;SDS011;49036;42.782;23.108;2023-01-09T11:46:28;35.25;;;16.42;;
62929;SDS011;49036;42.782;23.108;2023-01-09T11:48:55;39.15;;;17.73;;
62929;SDS011;49036;42.782;23.108;2023-01-09T11:51:23;35.25;;;14.77;;
62929;SDS011;49036;42.782;23.108;2023-01-09T11:53:57;29.83;;;14.10;;
62929;SDS011;49036;42.782;23.108;2023-01-09T11:56:24;29.80;;;11.68;;
62929;SDS011;49036;42.782;23.108;2023-01-09T11:58:50;32.80;;;13.88;;
62929;SDS011;49036;42.782;23.108;2023-01-09T12:01:21;28.75;;;14.82;;
62929;SDS011;49036;42.782;23.108;2023-01-09T12:09:34;24.73;;;12.40;;
62929;SDS011;49036;42.782;23.108;2023-01-09T12:22:53;28.15;;;13.18;;
62929;SDS011;49036;42.782;23.108;2023-01-09T12:31:09;27.88;;;12.60;;
62929;SDS011;49036;42.782;23.108;2023-01-09T12:36:27;24.80;;;12.05;;
62929;SDS011;49036;42.782;23.108;2023-01-09T12:53:21;30.23;;;13.77;;
62929;SDS011;49036;42.782;23.108;2023-01-09T12:55:28;25.38;;;11.65;;
62929;SDS011;49036;42.782;23.108;2023-01-09T13:00:36;21.25;;;10.02;;
62929;SDS011;49036;42.782;23.108;2023-01-09T13:03:20;21.83;;;9.95;;
62929;SDS011;49036;42.782;23.108;2023-01-09T13:05:50;24.80;;;12.25;;
62929;SDS011;49036;42.782;23.108;2023-01-09T13:10:50;26.27;;;11.98;;
62929;SDS011;49036;42.782;23.108;2023-01-09T13:13:19;27.83;;;13.00;;
62929;SDS011;49036;42.782;23.108;2023-01-09T13:15:57;27.42;;;12.35;;
62929;SDS011;49036;42.782;23.108;2023-01-09T13:21:19;27.23;;;13.20;;
62929;SDS011;49036;42.782;23.108;2023-01-09T13:23:50;31.00;;;12.32;;
62929;SDS011;49036;42.782;23.108;2023-01-09T13:26:29;26.83;;;11.38;;
62929;SDS011;49036;42.782;23.108;2023-01-09T13:34:51;22.95;;;11.68;;
62929;SDS011;49036;42.782;23.108;2023-01-09T13:37:23;22.30;;;11.27;;
62929;SDS011;49036;42.782;23.108;2023-01-09T13:39:58;28.45;;;12.55;;
62929;SDS011;49036;42.782;23.108;2023-01-09T13:42:28;27.17;;;12.10;;
62929;SDS011;49036;42.782;23.108;2023-01-09T13:45:19;25.23;;;10.55;;
62929;SDS011;49036;42.782;23.108;2023-01-09T13:47:46;30.38;;;12.43;;
62929;SDS011;49036;42.782;23.108;2023-01-09T13:50:32;25.52;;;11.20;;
62929;SDS011;49036;42.782;23.108;2023-01-09T13:53:01;23.08;;;10.93;;
62929;SDS011;49036;42.782;23.108;2023-01-09T13:58:27;23.38;;;9.90;;
62929;SDS011;49036;42.782;23.108;2023-01-09T14:01:00;25.40;;;10.55;;
62929;SDS011;49036;42.782;23.108;2023-01-09T14:03:29;22.25;;;10.60;;
62929;SDS011;49036;42.782;23.108;2023-01-09T14:08:22;24.15;;;10.45;;
62929;SDS011;49036;42.782;23.108;2023-01-09T14:10:58;23.60;;;11.70;;
62929;SDS011;49036;42.782;23.108;2023-01-09T14:13:29;22.15;;;11.02;;
62929;SDS011;49036;42.782;23.108;2023-01-09T14:18:44;22.20;;;10.10;;
62929;SDS011;49036;42.782;23.108;2023-01-09T14:21:43;24.20;;;11.95;;
62929;SDS011;49036;42.782;23.108;2023-01-09T14:24:17;29.13;;;11.70;;
62929;SDS011;49036;42.782;23.108;2023-01-09T14:26:47;33.22;;;13.23;;
62929;SDS011;49036;42.782;23.108;2023-01-09T14:32:45;27.77;;;13.30;;
62929;SDS011;49036;42.782;23.108;2023-01-09T14:37:33;28.92;;;12.88;;
62929;SDS011;49036;42.782;23.108;2023-01-09T14:39:59;23.17;;;12.43;;
62929;SDS011;49036;42.782;23.108;2023-01-09T14:42:27;32.00;;;14.13;;
62929;SDS011;49036;42.782;23.108;2023-01-09T14:45:04;30.00;;;14.07;;
62929;SDS011;49036;42.782;23.108;2023-01-09T14:47:48;32.08;;;13.40;;
62929;SDS011;49036;42.782;23.108;2023-01-09T14:53:11;33.38;;;13.65;;
62929;SDS011;49036;42.782;23.108;2023-01-09T14:58:16;34.28;;;13.00;;
62929;SDS011;49036;42.782;23.108;2023-01-09T15:03:19;32.72;;;15.38;;
62929;SDS011;49036;42.782;23.108;2023-01-09T15:05:46;34.28;;;14.55;;
62929;SDS011;49036;42.782;23.108;2023-01-09T15:08:15;31.23;;;13.52;;
62929;SDS011;49036;42.782;23.108;2023-01-09T15:10:45;32.60;;;13.68;;
62929;SDS011;49036;42.782;23.108;2023-01-09T15:13:14;37.70;;;15.02;;
62929;SDS011;49036;42.782;23.108;2023-01-09T15:15:48;31.15;;;13.05;;
62929;SDS011;49036;42.782;23.108;2023-01-09T15:18:19;30.90;;;14.55;;
62929;SDS011;49036;42.782;23.108;2023-01-09T15:20:52;31.05;;;12.95;;
62929;SDS011;49036;42.782;23.108;2023-01-09T15:23:21;36.47;;;17.15;;
62929;SDS011;49036;42.782;23.108;2023-01-09T15:25:48;50.25;;;21.77;;
62929;SDS011;49036;42.782;23.108;2023-01-09T15:28:27;47.60;;;18.80;;
62929;SDS011;49036;42.782;23.108;2023-01-09T15:31:05;45.42;;;16.65;;
62929;SDS011;49036;42.782;23.108;2023-01-09T15:33:38;71.68;;;24.75;;
62929;SDS011;49036;42.782;23.108;2023-01-09T15:36:07;98.50;;;33.47;;
62929;SDS011;49036;42.782;23.108;2023-01-09T15:38:37;69.10;;;23.95;;
62929;SDS011;49036;42.782;23.108;2023-01-09T15:41:08;59.30;;;25.77;;
62929;SDS011;49036;42.782;23.108;2023-01-09T15:43:38;68.95;;;28.92;;
62929;SDS011;49036;42.782;23.108;2023-01-09T15:46:04;42.42;;;18.67;;
62929;SDS011;49036;42.782;23.108;2023-01-09T15:48:31;41.15;;;16.77;;
62929;SDS011;49036;42.782;23.108;2023-01-09T15:51:01;52.28;;;20.27;;
62929;SDS011;49036;42.782;23.108;2023-01-09T15:53:30;50.63;;;22.10;;
62929;SDS011;49036;42.782;23.108;2023-01-09T15:58:46;59.63;;;23.63;;
62929;SDS011;49036;42.782;23.108;2023-01-09T16:01:19;48.92;;;20.05;;
62929;SDS011;49036;42.782;23.108;2023-01-09T16:03:55;60.88;;;25.27;;
62929;SDS011;49036;42.782;23.108;2023-01-09T16:06:36;55.78;;;22.58;;
62929;SDS011;49036;42.782;23.108;2023-01-09T16:09:16;46.63;;;19.25;;
62929;SDS011;49036;42.782;23.108;2023-01-09T16:11:49;57.22;;;23.63;;
62929;SDS011;49036;42.782;23.108;2023-01-09T16:17:03;44.08;;;19.15;;
62929;SDS011;49036;42.782;23.108;2023-01-09T16:19:39;46.38;;;21.20;;
62929;SDS011;49036;42.782;23.108;2023-01-09T16:22:16;48.55;;;19.88;;
62929;SDS011;49036;42.782;23.108;2023-01-09T16:24:48;41.58;;;18.15;;
62929;SDS011;49036;42.782;23.108;2023-01-09T16:29:51;41.20;;;17.52;;
62929;SDS011;49036;42.782;23.108;2023-01-09T16:32:22;35.15;;;16.33;;
62929;SDS011;49036;42.782;23.108;2023-01-09T16:34:51;39.10;;;16.02;;
62929;SDS011;49036;42.782;23.108;2023-01-09T16:37:18;38.47;;;14.98;;
62929;SDS011;49036;42.782;23.108;2023-01-09T16:42:28;34.95;;;14.13;;
62929;SDS011;49036;42.782;23.108;2023-01-09T16:45:12;43.47;;;16.60;;
62929;SDS011;49036;42.782;23.108;2023-01-09T16:47:38;44.03;;;17.08;;